Aspen-Pitkin Co,Sardy Field Aspen US
ICAO: KASE
IATA: ASE
Category: Medium
Scheduled Services: Yes

Elevation: 7820 ft
TransAlt. 18000 ft.

Airport Communications:
ATIS:120.4
CLNC DEL:123.75
APP/DEP:123.8
CTAF:118.85
GND:121.9
TWR:118.85
UNICOM:122.95

KASE Zoom In..

Runways:

(A) RW 15 length 8006 ft width 100 ft
LOC 111.15 / hdg 151

(B) RW 33 length 8006 ft width 100 ft
LOC 111.15 / hdg 331

Location; KASE
Day. 23 / Time. 09.53 Zulu
* Altimeter: 30.44
* Temperature: 12° c. 53.6°f.
* Wind from: 000° Speed 00 kn.
Dewpoint: 09° c.
Visibility: 10 Statute Miles.
Clouds: Clear (automated report).

KASE 230953Z AUTO 00000KT 10SM CLR 12/09 A3044 RMK AO2 SLP171 T01170094


Wind - Calm.

 
 
jpsmedia.com for Web Design worldairports.se 2018   terms of use